createdAt,value
2018-04-27T00:00:14.089Z,1005.44
2018-04-27T00:01:14.107Z,1005.4
2018-04-27T00:02:14.125Z,1005.42
2018-04-27T00:03:14.140Z,1005.41
2018-04-27T00:04:14.160Z,1005.42
2018-04-27T00:05:14.179Z,1005.41
2018-04-27T00:06:14.196Z,1005.39
2018-04-27T00:07:14.209Z,1005.36
2018-04-27T00:08:14.231Z,1005.36
2018-04-27T00:09:14.250Z,1005.37
2018-04-27T00:10:14.267Z,1005.31
2018-04-27T00:11:14.285Z,1005.32
2018-04-27T00:12:14.303Z,1005.33
2018-04-27T00:13:14.320Z,1005.35
2018-04-27T00:14:14.334Z,1005.37
2018-04-27T00:15:14.356Z,1005.37
2018-04-27T00:16:14.368Z,1005.33
2018-04-27T00:17:14.391Z,1005.35
2018-04-27T00:18:14.404Z,1005.37
2018-04-27T00:19:14.426Z,1005.39
2018-04-27T00:20:14.442Z,1005.38
2018-04-27T00:21:14.456Z,1005.38
2018-04-27T00:22:14.528Z,1005.37
2018-04-27T00:23:14.491Z,1005.41
2018-04-27T00:24:14.514Z,1005.42
2018-04-27T00:25:14.526Z,1005.4
2018-04-27T00:26:14.545Z,1005.42
2018-04-27T00:27:14.567Z,1005.4
2018-04-27T00:28:14.585Z,1005.4
2018-04-27T00:29:14.601Z,1005.43
2018-04-27T00:30:14.615Z,1005.42
2018-04-27T00:31:14.636Z,1005.42
2018-04-27T00:32:14.650Z,1005.41
2018-04-27T00:33:14.665Z,1005.43
2018-04-27T00:34:14.703Z,1005.43
2018-04-27T00:35:14.701Z,1005.41
2018-04-27T00:36:14.720Z,1005.39
2018-04-27T00:37:14.737Z,1005.37
2018-04-27T00:38:14.755Z,1005.38
2018-04-27T00:39:14.773Z,1005.39
2018-04-27T00:40:14.795Z,1005.38
2018-04-27T00:41:14.814Z,1005.38
2018-04-27T00:42:14.833Z,1005.37
2018-04-27T00:43:14.850Z,1005.35
2018-04-27T00:44:14.863Z,1005.39
2018-04-27T00:45:14.879Z,1005.38
2018-04-27T00:46:14.902Z,1005.33
2018-04-27T00:47:14.923Z,1005.33
2018-04-27T00:48:14.937Z,1005.3
2018-04-27T00:49:14.950Z,1005.34
2018-04-27T00:50:14.971Z,1005.28
2018-04-27T00:51:14.986Z,1005.31
2018-04-27T00:52:15.009Z,1005.3
2018-04-27T00:53:15.022Z,1005.29
2018-04-27T00:54:15.043Z,1005.32
2018-04-27T00:55:15.057Z,1005.3
2018-04-27T00:56:15.071Z,1005.32
2018-04-27T00:57:15.098Z,1005.29
2018-04-27T00:58:15.114Z,1005.31
2018-04-27T00:59:15.136Z,1005.3
2018-04-27T01:00:15.141Z,1005.3
2018-04-27T01:01:15.166Z,1005.31
2018-04-27T01:02:15.180Z,1005.3
2018-04-27T01:03:15.213Z,1005.25
2018-04-27T01:04:15.212Z,1005.22
2018-04-27T01:05:15.238Z,1005.2
2018-04-27T01:06:15.245Z,1005.21
2018-04-27T01:07:15.263Z,1005.2
2018-04-27T01:08:15.285Z,1005.16
2018-04-27T01:09:15.298Z,1005.14
2018-04-27T01:10:15.320Z,1005.18
2018-04-27T01:11:15.337Z,1005.18
2018-04-27T01:12:15.350Z,1005.19
2018-04-27T01:13:15.373Z,1005.15
2018-04-27T01:14:15.392Z,1005.13
2018-04-27T01:15:15.407Z,1005.11
2018-04-27T01:16:15.428Z,1005.08
2018-04-27T01:17:15.438Z,1005.1
2018-04-27T01:18:15.455Z,1005.05
2018-04-27T01:19:15.477Z,1005.1
2018-04-27T01:20:15.490Z,1005.12
2018-04-27T01:21:15.511Z,1005.05
2018-04-27T01:22:15.524Z,1005.07
2018-04-27T01:23:15.541Z,1005.1
2018-04-27T01:24:15.562Z,1005.09
2018-04-27T01:25:15.580Z,1005.07
2018-04-27T01:26:15.598Z,1005.09
2018-04-27T01:27:15.611Z,1005.11
2018-04-27T01:28:15.638Z,1005.04
2018-04-27T01:29:15.644Z,1005.12
2018-04-27T01:30:15.662Z,1005.11
2018-04-27T01:31:15.685Z,1005.15
2018-04-27T01:32:15.701Z,1005.14
2018-04-27T01:33:15.719Z,1005.14
2018-04-27T01:34:15.735Z,1005.11
2018-04-27T01:35:15.751Z,1005.13
2018-04-27T01:36:15.768Z,1005.1
2018-04-27T01:37:15.782Z,1005.1
2018-04-27T01:38:15.800Z,1005.07
2018-04-27T01:39:15.814Z,1005.17
2018-04-27T01:40:15.837Z,1005.16
2018-04-27T01:41:15.851Z,1005.15
2018-04-27T01:42:15.871Z,1005.16
2018-04-27T01:43:15.940Z,1005.16
2018-04-27T01:44:15.908Z,1005.15
2018-04-27T01:45:15.923Z,1005.16
2018-04-27T01:46:15.935Z,1005.12
2018-04-27T01:47:15.953Z,1005.14
2018-04-27T01:48:15.972Z,1005.16
2018-04-27T01:49:15.991Z,1005.09
2018-04-27T01:50:16.011Z,1005.11
2018-04-27T01:51:16.022Z,1005.15
2018-04-27T01:52:16.039Z,1005.13
2018-04-27T01:53:16.057Z,1005.16
2018-04-27T01:54:16.074Z,1005.14
2018-04-27T01:55:16.095Z,1005.11
2018-04-27T01:56:16.110Z,1005.1
2018-04-27T01:57:16.135Z,1005.09
2018-04-27T01:58:16.147Z,1005.09
2018-04-27T01:59:16.159Z,1005.1
2018-04-27T02:00:16.185Z,1005.07
2018-04-27T02:01:16.193Z,1005.08
2018-04-27T02:02:16.210Z,1005.1
2018-04-27T02:03:16.232Z,1005.02
2018-04-27T02:04:16.254Z,1005.09
2018-04-27T02:05:16.261Z,1005.1
2018-04-27T02:06:16.283Z,1005.08
2018-04-27T02:07:16.301Z,1005.11
2018-04-27T02:08:16.320Z,1005.13
2018-04-27T02:09:16.334Z,1005.13
2018-04-27T02:10:16.348Z,1005.16
2018-04-27T02:11:16.364Z,1005.15
2018-04-27T02:12:16.371Z,1005.18
2018-04-27T02:13:16.387Z,1005.15
2018-04-27T02:14:16.411Z,1005.13
2018-04-27T02:15:16.428Z,1005.14
2018-04-27T02:16:16.440Z,1005.16
2018-04-27T02:17:16.467Z,1005.16
2018-04-27T02:18:16.480Z,1005.12
2018-04-27T02:19:16.491Z,1005.09
2018-04-27T02:20:16.512Z,1005.09
2018-04-27T02:21:16.531Z,1005.13
2018-04-27T02:22:16.631Z,1005.12
2018-04-27T02:23:16.566Z,1005.15
2018-04-27T02:24:16.585Z,1005.16
2018-04-27T02:25:16.599Z,1005.17
2018-04-27T02:26:16.613Z,1005.17
2018-04-27T02:27:16.628Z,1005.18
2018-04-27T02:28:16.649Z,1005.17
2018-04-27T02:29:16.662Z,1005.2
2018-04-27T02:30:16.680Z,1005.19
2018-04-27T02:31:16.701Z,1005.21
2018-04-27T02:32:16.717Z,1005.19
2018-04-27T02:33:16.730Z,1005.23
2018-04-27T02:34:16.752Z,1005.23
2018-04-27T02:35:16.762Z,1005.22
2018-04-27T02:36:16.793Z,1005.19
2018-04-27T02:37:16.809Z,1005.19
2018-04-27T02:38:16.819Z,1005.23
2018-04-27T02:39:16.837Z,1005.24
2018-04-27T02:40:16.943Z,1005.28
2018-04-27T02:41:16.873Z,1005.25
2018-04-27T02:42:16.882Z,1005.28
2018-04-27T02:43:16.897Z,1005.23
2018-04-27T02:44:16.924Z,1005.21
2018-04-27T02:45:16.938Z,1005.21
2018-04-27T02:46:16.948Z,1005.16
2018-04-27T02:47:16.970Z,1005.15
2018-04-27T02:48:16.985Z,1005.17
2018-04-27T02:49:17.005Z,1005.18
2018-04-27T02:50:17.018Z,1005.14
2018-04-27T02:51:17.035Z,1005.12
2018-04-27T02:52:17.052Z,1005.14
2018-04-27T02:53:17.067Z,1005.16
2018-04-27T02:54:17.088Z,1005.13
2018-04-27T02:55:17.127Z,1005.13
2018-04-27T02:56:17.126Z,1005.13
2018-04-27T02:57:17.137Z,1005.16
2018-04-27T02:58:17.161Z,1005.17
2018-04-27T02:59:17.175Z,1005.19
2018-04-27T03:00:17.193Z,1005.15
2018-04-27T03:01:17.210Z,1005.19
2018-04-27T03:02:17.225Z,1005.18
2018-04-27T03:03:17.238Z,1005.17
2018-04-27T03:04:17.311Z,1005.1
2018-04-27T03:05:17.277Z,1005.14
2018-04-27T03:06:17.296Z,1005.13
2018-04-27T03:07:17.307Z,1005.12
2018-04-27T03:08:17.327Z,1005.11
2018-04-27T03:09:17.344Z,1005.15
2018-04-27T03:10:17.356Z,1005.17
2018-04-27T03:11:17.374Z,1005.15
2018-04-27T03:12:17.397Z,1005.15
2018-04-27T03:13:17.406Z,1005.13
2018-04-27T03:14:17.475Z,1005.13
2018-04-27T03:15:17.440Z,1005.11
2018-04-27T03:16:17.457Z,1005.12
2018-04-27T03:17:17.479Z,1005.1
2018-04-27T03:18:17.492Z,1005.07
2018-04-27T03:19:17.514Z,1005.08
2018-04-27T03:20:17.527Z,1005.14
2018-04-27T03:21:17.545Z,1005.07
2018-04-27T03:22:17.564Z,1005.06
2018-04-27T03:23:17.579Z,1005.07
2018-04-27T03:24:17.597Z,1005.05
2018-04-27T03:25:17.614Z,1005.02
2018-04-27T03:26:17.626Z,1005.04
2018-04-27T03:27:17.642Z,1005.03
2018-04-27T03:28:17.659Z,1004.98
2018-04-27T03:29:17.725Z,1005.01
2018-04-27T03:30:17.697Z,1005.02
2018-04-27T03:31:17.716Z,1005.01
2018-04-27T03:32:17.730Z,1005
2018-04-27T03:33:17.747Z,1005.05
2018-04-27T03:34:17.830Z,1005.03
2018-04-27T03:35:17.778Z,1005.01
2018-04-27T03:36:17.797Z,1005.08
2018-04-27T03:37:17.810Z,1005.08
2018-04-27T03:38:17.826Z,1005.09
2018-04-27T03:39:17.898Z,1005.09
2018-04-27T03:40:17.867Z,1005.09
2018-04-27T03:41:17.879Z,1005.09
2018-04-27T03:42:17.895Z,1005.07
2018-04-27T03:43:17.916Z,1005.05
2018-04-27T03:44:17.926Z,1005.06
2018-04-27T03:45:17.967Z,1005.05
2018-04-27T03:46:17.965Z,1005.04
2018-04-27T03:47:17.976Z,1005.04
2018-04-27T03:48:17.998Z,1005.05
2018-04-27T03:49:18.015Z,1005.04
2018-04-27T03:50:18.027Z,1005.03
2018-04-27T03:51:18.052Z,1005
2018-04-27T03:52:18.066Z,1004.98
2018-04-27T03:53:18.083Z,1005
2018-04-27T03:54:18.099Z,1004.98
2018-04-27T03:55:18.115Z,1004.96
2018-04-27T03:56:18.134Z,1005
2018-04-27T03:57:18.145Z,1005.01
2018-04-27T03:58:18.166Z,1004.97
2018-04-27T03:59:18.183Z,1005
2018-04-27T04:00:18.200Z,1005
2018-04-27T04:01:18.216Z,1005
2018-04-27T04:02:18.228Z,1005
2018-04-27T04:03:18.249Z,1005.02
2018-04-27T04:04:18.266Z,1005.03
2018-04-27T04:05:18.279Z,1005.07
2018-04-27T04:06:18.294Z,1005.02
2018-04-27T04:07:18.315Z,1005.02
2018-04-27T04:08:18.328Z,1005.02
2018-04-27T04:09:18.351Z,1005.03
2018-04-27T04:10:18.366Z,1005.04
2018-04-27T04:11:18.383Z,1005.05
2018-04-27T04:12:18.393Z,1005.03
2018-04-27T04:13:18.419Z,1005.06
2018-04-27T04:14:18.432Z,1005.03
2018-04-27T04:15:18.444Z,1005.04
2018-04-27T04:16:18.470Z,1005.08
2018-04-27T04:17:18.481Z,1005.08
2018-04-27T04:18:18.493Z,1005.08
2018-04-27T04:19:18.560Z,1005.07
2018-04-27T04:20:18.532Z,1005.07
2018-04-27T04:21:18.547Z,1005.03
2018-04-27T04:22:18.563Z,1005.01
2018-04-27T04:23:18.577Z,1005.09
2018-04-27T04:24:18.643Z,1005.05
2018-04-27T04:25:18.614Z,1005.09
2018-04-27T04:26:18.626Z,1005.13
2018-04-27T04:27:18.643Z,1005.12
2018-04-27T04:28:18.664Z,1005.11
2018-04-27T04:29:18.679Z,1005.1
2018-04-27T04:30:18.696Z,1005.05
2018-04-27T04:31:18.714Z,1005.05
2018-04-27T04:32:18.788Z,1005.09
2018-04-27T04:33:18.746Z,1005.06
2018-04-27T04:34:18.763Z,1005.11
2018-04-27T04:35:18.778Z,1005.08
2018-04-27T04:36:18.791Z,1005.1
2018-04-27T04:37:18.813Z,1005.11
2018-04-27T04:38:18.841Z,1005.08
2018-04-27T04:39:18.844Z,1005.07
2018-04-27T04:40:18.857Z,1005.07
2018-04-27T04:41:18.887Z,1005.08
2018-04-27T04:42:18.894Z,1005.08
2018-04-27T04:43:18.906Z,1005.06
2018-04-27T04:44:18.976Z,1005.06
2018-04-27T04:45:18.940Z,1005.07
2018-04-27T04:46:18.956Z,1005.07
2018-04-27T04:47:18.974Z,1005.06
2018-04-27T04:48:19.005Z,1005.1
2018-04-27T04:49:19.007Z,1005.06
2018-04-27T04:50:19.021Z,1005.07
2018-04-27T04:51:19.036Z,1005.07
2018-04-27T04:52:19.065Z,1005.1
2018-04-27T04:53:19.070Z,1005.04
2018-04-27T04:54:19.086Z,1005.1
2018-04-27T04:55:19.108Z,1005.06
2018-04-27T04:56:19.120Z,1005.06
2018-04-27T04:57:19.141Z,1005.06
2018-04-27T04:58:19.161Z,1005.11
2018-04-27T04:59:19.226Z,1005.09
2018-04-27T05:00:19.191Z,1005.1
2018-04-27T05:01:19.204Z,1005.12
2018-04-27T05:02:19.224Z,1005.12
2018-04-27T05:03:19.235Z,1005.16
2018-04-27T05:04:19.256Z,1005.16
2018-04-27T05:05:19.267Z,1005.25
2018-04-27T05:06:19.290Z,1005.23
2018-04-27T05:07:19.305Z,1005.22
2018-04-27T05:08:19.351Z,1005.22
2018-04-27T05:09:19.334Z,1005.22
2018-04-27T05:10:19.351Z,1005.24
2018-04-27T05:11:19.371Z,1005.22
2018-04-27T05:12:19.388Z,1005.26
2018-04-27T05:13:19.408Z,1005.27
2018-04-27T05:14:19.416Z,1005.24
2018-04-27T05:15:19.432Z,1005.2
2018-04-27T05:16:19.448Z,1005.23
2018-04-27T05:17:19.463Z,1005.23
2018-04-27T05:18:19.486Z,1005.25
2018-04-27T05:19:19.503Z,1005.2
2018-04-27T05:20:19.519Z,1005.18
2018-04-27T05:21:19.533Z,1005.17
2018-04-27T05:22:19.548Z,1005.2
2018-04-27T05:23:19.571Z,1005.19
2018-04-27T05:24:19.664Z,1005.18
2018-04-27T05:25:19.597Z,1005.21
2018-04-27T05:26:19.613Z,1005.21
2018-04-27T05:27:19.634Z,1005.19
2018-04-27T05:28:19.651Z,1005.21
2018-04-27T05:29:19.663Z,1005.21
2018-04-27T05:30:19.678Z,1005.2
2018-04-27T05:31:19.701Z,1005.21
2018-04-27T05:32:19.715Z,1005.22
2018-04-27T05:33:19.735Z,1005.23
2018-04-27T05:34:19.749Z,1005.19
2018-04-27T05:35:19.761Z,1005.15
2018-04-27T05:36:19.777Z,1005.17
2018-04-27T05:37:19.796Z,1005.17
2018-04-27T05:38:19.823Z,1005.19
2018-04-27T05:39:19.833Z,1005.21
2018-04-27T05:40:19.843Z,1005.21
2018-04-27T05:41:19.860Z,1005.22
2018-04-27T05:42:19.881Z,1005.21
2018-04-27T05:43:19.897Z,1005.18
2018-04-27T05:44:19.912Z,1005.19
2018-04-27T05:45:19.925Z,1005.15
2018-04-27T05:46:19.946Z,1005.12
2018-04-27T05:47:19.969Z,1005.14
2018-04-27T05:48:20.072Z,1005.13
2018-04-27T05:49:19.991Z,1005.14
2018-04-27T05:50:20.014Z,1005.15
2018-04-27T05:51:20.030Z,1005.15
2018-04-27T05:52:20.040Z,1005.13
2018-04-27T05:53:20.061Z,1005.15
2018-04-27T05:54:20.079Z,1005.17
2018-04-27T05:55:20.094Z,1005.14
2018-04-27T05:56:20.106Z,1005.13
2018-04-27T05:57:20.127Z,1005.16
2018-04-27T05:58:20.142Z,1005.13
2018-04-27T05:59:20.160Z,1005.13
2018-04-27T06:00:20.177Z,1005.12
2018-04-27T06:01:20.188Z,1005.09
2018-04-27T06:02:20.211Z,1005.05
2018-04-27T06:03:20.227Z,1005.08
2018-04-27T06:04:20.237Z,1005.05
2018-04-27T06:05:20.254Z,1005.04
2018-04-27T06:06:20.273Z,1005.04
2018-04-27T06:07:20.288Z,1004.98
2018-04-27T06:08:20.309Z,1005
2018-04-27T06:09:20.325Z,1005.01
2018-04-27T06:10:20.343Z,1005.01
2018-04-27T06:11:20.354Z,1004.98
2018-04-27T06:12:20.373Z,1005
2018-04-27T06:13:20.387Z,1004.98
2018-04-27T06:14:20.409Z,1005
2018-04-27T06:15:20.426Z,1004.94
2018-04-27T06:16:20.443Z,1004.94
2018-04-27T06:17:20.453Z,1004.95
2018-04-27T06:18:20.470Z,1004.91
2018-04-27T06:19:20.487Z,1004.94
2018-04-27T06:20:20.507Z,1004.94
2018-04-27T06:21:20.524Z,1004.91
2018-04-27T06:22:20.542Z,1004.91
2018-04-27T06:23:20.553Z,1004.91
2018-04-27T06:24:20.569Z,1004.86
2018-04-27T06:25:20.590Z,1004.86
2018-04-27T06:26:20.611Z,1004.87
2018-04-27T06:27:20.620Z,1004.83
2018-04-27T06:28:20.647Z,1004.85
2018-04-27T06:29:20.660Z,1004.79
2018-04-27T06:30:20.669Z,1004.8
2018-04-27T06:31:20.685Z,1004.76
2018-04-27T06:32:20.708Z,1004.76
2018-04-27T06:33:20.719Z,1004.79
2018-04-27T06:34:20.742Z,1004.77
2018-04-27T06:35:20.752Z,1004.8
2018-04-27T06:36:20.774Z,1004.75
2018-04-27T06:37:20.786Z,1004.75
2018-04-27T06:38:20.821Z,1004.74
2018-04-27T06:39:20.882Z,1004.75
2018-04-27T06:40:20.837Z,1004.72
2018-04-27T06:41:20.854Z,1004.71
2018-04-27T06:42:20.875Z,1004.76
2018-04-27T06:43:20.888Z,1004.71
2018-04-27T06:44:20.911Z,1004.72
2018-04-27T06:45:20.928Z,1004.71
2018-04-27T06:46:20.943Z,1004.73
2018-04-27T06:47:20.955Z,1004.71
2018-04-27T06:48:20.983Z,1004.74
2018-04-27T06:49:20.991Z,1004.71
2018-04-27T06:50:21.011Z,1004.76
2018-04-27T06:51:21.023Z,1004.75
2018-04-27T06:52:21.046Z,1004.75
2018-04-27T06:53:21.068Z,1004.79
2018-04-27T06:54:21.074Z,1004.8
2018-04-27T06:55:21.092Z,1004.76
2018-04-27T06:56:21.115Z,1004.76
2018-04-27T06:57:21.127Z,1004.75
2018-04-27T06:58:21.143Z,1004.75
2018-04-27T06:59:21.201Z,1004.78
2018-04-27T07:00:21.182Z,1004.77
2018-04-27T07:01:21.201Z,1004.74
2018-04-27T07:02:21.212Z,1004.75
2018-04-27T07:03:21.235Z,1004.8
2018-04-27T07:04:21.247Z,1004.77
2018-04-27T07:05:21.320Z,1004.83
2018-04-27T07:06:21.282Z,1004.82
2018-04-27T07:07:21.301Z,1004.87
2018-04-27T07:08:21.322Z,1004.85
2018-04-27T07:09:21.343Z,1004.86
2018-04-27T07:10:21.358Z,1004.85
2018-04-27T07:11:21.373Z,1004.82
2018-04-27T07:12:21.393Z,1004.81
2018-04-27T07:13:21.410Z,1004.79
2018-04-27T07:14:21.427Z,1004.79
2018-04-27T07:15:21.444Z,1004.78
2018-04-27T07:16:21.463Z,1004.81
2018-04-27T07:17:21.474Z,1004.78
2018-04-27T07:18:21.494Z,1004.74
2018-04-27T07:19:21.510Z,1004.74
2018-04-27T07:20:21.536Z,1004.73
2018-04-27T07:21:21.545Z,1004.73
2018-04-27T07:22:21.562Z,1004.74
2018-04-27T07:23:21.582Z,1004.71
2018-04-27T07:24:21.604Z,1004.72
2018-04-27T07:25:21.624Z,1004.73
2018-04-27T07:26:21.636Z,1004.75
2018-04-27T07:27:21.653Z,1004.78
2018-04-27T07:28:21.675Z,1004.74
2018-04-27T07:29:21.688Z,1004.76
2018-04-27T07:30:21.710Z,1004.77
2018-04-27T07:31:21.727Z,1004.78
2018-04-27T07:32:21.749Z,1004.76
2018-04-27T07:33:21.762Z,1004.75
2018-04-27T07:34:21.777Z,1004.76
2018-04-27T07:35:21.800Z,1004.76
2018-04-27T07:36:21.822Z,1004.73
2018-04-27T07:37:21.842Z,1004.73
2018-04-27T07:38:21.848Z,1004.72
2018-04-27T07:39:21.867Z,1004.72
2018-04-27T07:40:21.885Z,1004.71
2018-04-27T07:41:21.903Z,1004.72
2018-04-27T07:42:21.928Z,1004.7
2018-04-27T07:43:21.941Z,1004.73
2018-04-27T07:44:21.965Z,1004.64
2018-04-27T07:45:22.108Z,1004.67
2018-04-27T07:46:21.998Z,1004.68
2018-04-27T07:47:22.018Z,1004.62
2018-04-27T07:48:22.033Z,1004.68
2018-04-27T07:49:22.055Z,1004.71
2018-04-27T07:50:22.079Z,1004.66
2018-04-27T07:51:22.087Z,1004.67
2018-04-27T07:52:22.104Z,1004.68
2018-04-27T07:53:22.123Z,1004.65
2018-04-27T07:54:22.141Z,1004.62
2018-04-27T07:55:22.221Z,1004.63
2018-04-27T07:56:22.181Z,1004.61
2018-04-27T07:57:22.201Z,1004.61
2018-04-27T07:58:22.223Z,1004.63
2018-04-27T07:59:22.233Z,1004.64
2018-04-27T08:00:22.305Z,1004.61
2018-04-27T08:01:22.270Z,1004.63
2018-04-27T08:02:22.354Z,1004.61
2018-04-27T08:03:22.310Z,1004.61
2018-04-27T08:04:22.324Z,1004.62
2018-04-27T08:05:22.399Z,1004.61
2018-04-27T08:06:22.361Z,1004.64
2018-04-27T08:07:22.382Z,1004.65
2018-04-27T08:08:22.405Z,1004.61
2018-04-27T08:09:22.419Z,1004.61
2018-04-27T08:10:22.443Z,1004.61
2018-04-27T08:11:22.501Z,1004.59
2018-04-27T08:12:22.480Z,1004.57
2018-04-27T08:13:22.494Z,1004.59
2018-04-27T08:14:22.520Z,1004.59
2018-04-27T08:15:22.532Z,1004.63
2018-04-27T08:16:22.555Z,1004.61
2018-04-27T08:17:22.574Z,1004.59
2018-04-27T08:18:22.587Z,1004.58
2018-04-27T08:19:22.613Z,1004.59
2018-04-27T08:20:22.626Z,1004.57
2018-04-27T08:21:22.649Z,1004.53
2018-04-27T08:22:22.663Z,1004.6
2018-04-27T08:23:22.682Z,1004.6
2018-04-27T08:24:22.706Z,1004.56
2018-04-27T08:25:22.724Z,1004.56
2018-04-27T08:26:22.744Z,1004.54
2018-04-27T08:27:22.759Z,1004.5
2018-04-27T08:28:22.783Z,1004.55
2018-04-27T08:29:22.796Z,1004.55
2018-04-27T08:30:22.822Z,1004.52
2018-04-27T08:31:22.840Z,1004.53
2018-04-27T08:32:22.859Z,1004.51
2018-04-27T08:33:22.871Z,1004.49
2018-04-27T08:34:22.891Z,1004.49
2018-04-27T08:35:22.912Z,1004.48
2018-04-27T08:36:22.930Z,1004.5
2018-04-27T08:37:22.950Z,1004.52
2018-04-27T08:38:22.970Z,1004.43
2018-04-27T08:39:22.989Z,1004.45
2018-04-27T08:40:23.013Z,1004.42
2018-04-27T08:41:23.034Z,1004.45
2018-04-27T08:42:23.052Z,1004.44
2018-04-27T08:43:23.072Z,1004.49
2018-04-27T08:44:23.090Z,1004.44
2018-04-27T08:45:23.110Z,1004.41
2018-04-27T08:46:23.128Z,1004.37
2018-04-27T08:47:23.144Z,1004.37
2018-04-27T08:48:23.168Z,1004.41
2018-04-27T08:49:23.189Z,1004.36
2018-04-27T08:50:23.263Z,1004.36
2018-04-27T08:51:23.226Z,1004.41
2018-04-27T08:52:23.251Z,1004.4
2018-04-27T08:53:23.267Z,1004.37
2018-04-27T08:54:23.282Z,1004.36
2018-04-27T08:55:23.301Z,1004.38
2018-04-27T08:56:23.325Z,1004.36
2018-04-27T08:57:23.340Z,1004.35
2018-04-27T08:58:23.365Z,1004.31
2018-04-27T08:59:23.381Z,1004.31
2018-04-27T09:00:23.405Z,1004.36
2018-04-27T09:01:23.425Z,1004.34
2018-04-27T09:02:23.444Z,1004.29
2018-04-27T09:03:23.466Z,1004.25
2018-04-27T09:04:23.481Z,1004.22
2018-04-27T09:05:23.505Z,1004.26
2018-04-27T09:06:23.589Z,1004.26
2018-04-27T09:07:23.546Z,1004.23
2018-04-27T09:08:23.560Z,1004.19
2018-04-27T09:09:23.586Z,1004.24
2018-04-27T09:10:23.601Z,1004.21
2018-04-27T09:11:23.626Z,1004.15
2018-04-27T09:12:23.647Z,1004.2
2018-04-27T09:13:23.661Z,1004.17
2018-04-27T09:14:23.682Z,1004.14
2018-04-27T09:15:23.707Z,1004.16
2018-04-27T09:16:23.786Z,1004.16
2018-04-27T09:17:23.743Z,1004.1
2018-04-27T09:18:23.768Z,1004.15
2018-04-27T09:19:23.791Z,1004.09
2018-04-27T09:20:23.803Z,1004.1
2018-04-27T09:21:23.823Z,1004.11
2018-04-27T09:22:23.849Z,1004.04
2018-04-27T09:23:23.868Z,1004.04
2018-04-27T09:24:23.889Z,1004.04
2018-04-27T09:25:23.907Z,1004.04
2018-04-27T09:26:23.930Z,1003.99
2018-04-27T09:27:23.948Z,1004
2018-04-27T09:28:23.981Z,1003.93
2018-04-27T09:29:23.992Z,1003.96
2018-04-27T09:30:24.008Z,1003.97
2018-04-27T09:31:24.035Z,1003.96
2018-04-27T09:32:24.107Z,1003.95
2018-04-27T09:33:24.076Z,1003.94
2018-04-27T09:34:24.096Z,1003.95
2018-04-27T09:35:24.117Z,1003.99
2018-04-27T09:36:24.138Z,1003.97
2018-04-27T09:37:24.163Z,1003.95
2018-04-27T09:38:24.175Z,1003.93
2018-04-27T09:39:24.196Z,1003.92
2018-04-27T09:40:24.221Z,1003.82
2018-04-27T09:41:24.242Z,1003.84
2018-04-27T09:42:24.257Z,1003.79
2018-04-27T09:43:24.285Z,1003.85
2018-04-27T09:44:24.300Z,1003.85
2018-04-27T09:45:24.326Z,1003.86
2018-04-27T09:46:24.341Z,1003.8
2018-04-27T09:47:24.364Z,1003.8
2018-04-27T09:48:24.390Z,1003.76
2018-04-27T09:49:24.410Z,1003.8
2018-04-27T09:50:24.433Z,1003.77
2018-04-27T09:51:24.454Z,1003.74
2018-04-27T09:52:24.474Z,1003.69
2018-04-27T09:53:24.492Z,1003.7
2018-04-27T09:54:24.531Z,1003.63
2018-04-27T09:55:24.539Z,1003.59
2018-04-27T09:56:24.554Z,1003.62
2018-04-27T09:57:24.577Z,1003.61
2018-04-27T09:58:24.597Z,1003.62
2018-04-27T09:59:24.625Z,1003.61
2018-04-27T10:00:24.646Z,1003.55
2018-04-27T10:01:24.667Z,1003.57
2018-04-27T10:02:24.685Z,1003.53
2018-04-27T10:03:24.709Z,1003.5
2018-04-27T10:04:24.733Z,1003.51
2018-04-27T10:05:24.748Z,1003.47
2018-04-27T10:06:24.779Z,1003.49
2018-04-27T10:07:24.795Z,1003.41
2018-04-27T10:08:24.813Z,1003.38
2018-04-27T10:09:24.836Z,1003.4
2018-04-27T10:10:24.863Z,1003.39
2018-04-27T10:11:24.879Z,1003.41
2018-04-27T10:12:24.903Z,1003.41
2018-04-27T10:13:24.929Z,1003.36
2018-04-27T10:14:24.951Z,1003.38
2018-04-27T10:15:24.971Z,1003.4
2018-04-27T10:16:25.002Z,1003.32
2018-04-27T10:17:25.015Z,1003.32
2018-04-27T10:18:25.051Z,1003.35
2018-04-27T10:19:25.059Z,1003.36
2018-04-27T10:20:25.091Z,1003.31
2018-04-27T10:21:25.102Z,1003.28
2018-04-27T10:22:25.132Z,1003.23
2018-04-27T10:23:25.152Z,1003.23
2018-04-27T10:24:25.184Z,1003.24
2018-04-27T10:25:25.197Z,1003.19
2018-04-27T10:26:25.229Z,1003.17
2018-04-27T10:27:25.238Z,1003.16
2018-04-27T10:28:25.280Z,1003.16
2018-04-27T10:29:25.284Z,1003.07
2018-04-27T10:30:25.316Z,1003.01
2018-04-27T10:31:25.332Z,1003
2018-04-27T10:32:25.351Z,1002.93
2018-04-27T10:33:25.378Z,1002.97
2018-04-27T10:34:25.400Z,1002.97
2018-04-27T10:35:25.419Z,1002.94
2018-04-27T10:36:25.491Z,1002.94
2018-04-27T10:37:25.473Z,1002.9
2018-04-27T10:38:25.492Z,1002.88
2018-04-27T10:39:25.511Z,1002.89
2018-04-27T10:40:25.536Z,1002.9
2018-04-27T10:41:25.560Z,1002.86
2018-04-27T10:42:25.583Z,1002.81
2018-04-27T10:43:25.606Z,1002.82
2018-04-27T10:44:25.629Z,1002.77
2018-04-27T10:45:25.648Z,1002.78
2018-04-27T10:46:25.675Z,1002.77
2018-04-27T10:47:25.704Z,1002.73
2018-04-27T10:48:25.719Z,1002.71
2018-04-27T10:49:25.750Z,1002.7
2018-04-27T10:50:25.770Z,1002.69
2018-04-27T10:51:25.835Z,1002.71
2018-04-27T10:52:25.811Z,1002.71
2018-04-27T10:53:25.834Z,1002.72
2018-04-27T10:54:25.869Z,1002.69
2018-04-27T10:55:25.881Z,1002.76
2018-04-27T10:56:25.971Z,1002.73
2018-04-27T10:57:25.935Z,1002.63
2018-04-27T10:58:25.951Z,1002.69
2018-04-27T10:59:25.979Z,1002.68
2018-04-27T11:00:26.000Z,1002.67
2018-04-27T11:01:26.044Z,1002.58
2018-04-27T11:02:26.051Z,1002.6
2018-04-27T11:03:26.104Z,1002.61
2018-04-27T11:04:26.102Z,1002.57
2018-04-27T11:05:26.125Z,1002.61
2018-04-27T11:06:26.148Z,1002.56
2018-04-27T11:07:26.168Z,1002.52
2018-04-27T11:08:26.203Z,1002.48
2018-04-27T11:09:26.220Z,1002.46
2018-04-27T11:10:26.245Z,1002.49
2018-04-27T11:11:26.323Z,1002.5
2018-04-27T11:12:26.288Z,1002.5
2018-04-27T11:13:26.313Z,1002.48
2018-04-27T11:14:26.341Z,1002.45
2018-04-27T11:15:26.367Z,1002.48
2018-04-27T11:16:26.500Z,1002.45
2018-04-27T11:17:26.419Z,1002.41
2018-04-27T11:18:26.435Z,1002.36
2018-04-27T11:19:26.460Z,1002.38
2018-04-27T11:20:26.490Z,1002.34
2018-04-27T11:21:26.513Z,1002.32
2018-04-27T11:22:26.538Z,1002.33
2018-04-27T11:23:26.563Z,1002.32
2018-04-27T11:24:26.587Z,1002.33
2018-04-27T11:25:26.612Z,1002.31
2018-04-27T11:26:26.632Z,1002.32
2018-04-27T11:27:26.656Z,1002.3
2018-04-27T11:28:26.680Z,1002.27
2018-04-27T11:29:26.715Z,1002.25
2018-04-27T11:30:26.737Z,1002.24
2018-04-27T11:31:26.755Z,1002.22
2018-04-27T11:32:26.780Z,1002.16
2018-04-27T11:33:26.811Z,1002.21
2018-04-27T11:34:26.830Z,1002.15
2018-04-27T11:35:26.887Z,1002.11
2018-04-27T11:36:26.885Z,1002.12
2018-04-27T11:37:26.905Z,1002.14
2018-04-27T11:38:26.938Z,1002.14
2018-04-27T11:39:26.961Z,1002.13
2018-04-27T11:40:26.979Z,1002.14
2018-04-27T11:41:27.010Z,1002.11
2018-04-27T11:42:27.028Z,1002.14
2018-04-27T11:43:27.063Z,1002.12
2018-04-27T11:44:27.086Z,1002.14
2018-04-27T11:45:27.105Z,1002.11
2018-04-27T11:46:27.136Z,1002.11
2018-04-27T11:47:27.161Z,1002.09
2018-04-27T11:48:27.181Z,1002.03
2018-04-27T11:49:27.210Z,1002.06
2018-04-27T11:50:27.235Z,1002.06
2018-04-27T11:51:27.262Z,1002.07
2018-04-27T11:52:27.282Z,1002.02
2018-04-27T11:53:27.307Z,1001.97
2018-04-27T11:54:27.338Z,1002
2018-04-27T11:55:27.359Z,1001.99
2018-04-27T11:56:27.382Z,1002.03
2018-04-27T11:57:27.413Z,1001.99
2018-04-27T11:58:27.441Z,1001.97
2018-04-27T11:59:27.465Z,1001.98
2018-04-27T12:00:27.485Z,1001.93
2018-04-27T12:01:27.515Z,1001.95
2018-04-27T12:02:27.541Z,1001.9
2018-04-27T12:03:27.567Z,1001.9
2018-04-27T12:04:27.587Z,1001.89
2018-04-27T12:05:27.612Z,1001.87
2018-04-27T12:06:27.643Z,1001.87
2018-04-27T12:07:27.664Z,1001.79
2018-04-27T12:08:27.695Z,1001.79
2018-04-27T12:09:27.720Z,1001.8